createdAt,value
2023-11-27T00:00:37.296Z,5.15
2023-11-27T00:03:07.337Z,5.40
2023-11-27T00:05:35.571Z,5.20
2023-11-27T00:08:03.461Z,4.30
2023-11-27T00:10:30.227Z,4.53
2023-11-27T00:12:57.305Z,6.72
2023-11-27T00:15:24.100Z,3.67
2023-11-27T00:17:53.321Z,3.67
2023-11-27T00:20:20.103Z,3.80
2023-11-27T00:22:46.692Z,4.85
2023-11-27T00:25:13.681Z,5.72
2023-11-27T00:27:40.260Z,5.72
2023-11-27T00:30:07.289Z,2.60
2023-11-27T00:32:33.677Z,2.90
2023-11-27T00:35:00.735Z,5.43
2023-11-27T00:37:28.601Z,3.50
2023-11-27T00:39:55.225Z,5.68
2023-11-27T00:42:22.445Z,5.13
2023-11-27T00:44:49.349Z,4.53
2023-11-27T00:47:16.732Z,3.72
2023-11-27T00:49:43.425Z,3.53
2023-11-27T00:52:10.130Z,5.07
2023-11-27T00:54:36.576Z,4.38
2023-11-27T00:57:03.049Z,3.45
2023-11-27T00:59:29.696Z,3.53
2023-11-27T01:01:56.388Z,3.40
2023-11-27T01:04:23.624Z,5.68
2023-11-27T01:06:59.352Z,4.38
2023-11-27T01:09:25.984Z,6.25
2023-11-27T01:11:52.571Z,4.72
2023-11-27T01:14:19.279Z,4.30
2023-11-27T01:16:50.927Z,4.38
2023-11-27T01:19:19.881Z,3.65
2023-11-27T01:21:47.176Z,3.47
2023-11-27T01:24:14.457Z,3.38
2023-11-27T01:26:41.091Z,4.20
2023-11-27T01:29:07.832Z,3.67
2023-11-27T01:31:34.484Z,4.18
2023-11-27T01:34:02.603Z,4.85
2023-11-27T01:36:29.570Z,6.07
2023-11-27T01:38:56.996Z,3.60
2023-11-27T01:41:30.966Z,5.28
2023-11-27T01:43:57.481Z,4.57
2023-11-27T01:46:24.219Z,4.47
2023-11-27T01:48:51.793Z,4.35
2023-11-27T01:51:18.322Z,4.15
2023-11-27T01:53:45.182Z,3.80
2023-11-27T01:56:12.622Z,5.18
2023-11-27T01:58:41.048Z,4.47
2023-11-27T02:01:07.914Z,4.32
2023-11-27T02:03:36.683Z,4.20
2023-11-27T02:06:04.440Z,3.25
2023-11-27T02:08:31.078Z,6.53
2023-11-27T02:10:59.944Z,4.30
2023-11-27T02:13:26.988Z,6.03
2023-11-27T02:15:54.920Z,5.78
2023-11-27T02:18:21.853Z,5.13
2023-11-27T02:20:48.600Z,5.30
2023-11-27T02:23:15.430Z,5.07
2023-11-27T02:25:42.536Z,4.13
2023-11-27T02:28:11.736Z,4.82
2023-11-27T02:30:38.609Z,6.60
2023-11-27T02:33:05.493Z,4.68
2023-11-27T02:35:35.478Z,7.00
2023-11-27T02:38:04.070Z,4.68
2023-11-27T02:40:31.828Z,5.93
2023-11-27T02:42:58.782Z,4.93
2023-11-27T02:45:25.778Z,4.00
2023-11-27T02:47:53.310Z,4.60
2023-11-27T02:50:19.745Z,5.07
2023-11-27T02:52:46.345Z,5.00
2023-11-27T02:55:12.940Z,3.88
2023-11-27T02:57:40.116Z,4.47
2023-11-27T03:00:09.057Z,4.82
2023-11-27T03:02:37.975Z,4.22
2023-11-27T03:05:04.554Z,4.25
2023-11-27T03:07:31.176Z,4.35
2023-11-27T03:09:58.029Z,4.65
2023-11-27T03:12:24.485Z,7.15
2023-11-27T03:14:51.413Z,3.78
2023-11-27T03:17:18.189Z,3.38
2023-11-27T03:19:48.660Z,4.00
2023-11-27T03:22:16.259Z,6.32
2023-11-27T03:24:45.929Z,4.35
2023-11-27T03:27:12.473Z,5.07
2023-11-27T03:29:39.304Z,6.50
2023-11-27T03:32:07.050Z,3.85
2023-11-27T03:34:33.566Z,4.15
2023-11-27T03:37:00.304Z,4.35
2023-11-27T03:39:27.232Z,4.40
2023-11-27T03:41:54.044Z,3.75
2023-11-27T03:44:20.756Z,4.63
2023-11-27T03:46:47.383Z,5.32
2023-11-27T03:49:14.088Z,5.43
2023-11-27T03:51:41.110Z,5.10
2023-11-27T03:54:08.158Z,4.35
2023-11-27T03:56:35.608Z,4.18
2023-11-27T03:59:02.391Z,4.30
2023-11-27T04:01:29.647Z,4.03
2023-11-27T04:03:56.679Z,4.03
2023-11-27T04:06:23.480Z,3.67
2023-11-27T04:08:51.199Z,3.22
2023-11-27T04:11:21.836Z,5.20
2023-11-27T04:13:48.719Z,3.80
2023-11-27T04:16:15.306Z,3.55
2023-11-27T04:18:43.727Z,3.05
2023-11-27T04:21:10.289Z,4.47
2023-11-27T04:23:36.866Z,3.25
2023-11-27T04:26:03.563Z,4.32
2023-11-27T04:28:30.892Z,3.22
2023-11-27T04:30:59.104Z,3.60
2023-11-27T04:33:25.541Z,3.97
2023-11-27T04:35:54.975Z,3.20
2023-11-27T04:38:23.927Z,3.22
2023-11-27T04:40:50.385Z,3.17
2023-11-27T04:43:17.237Z,3.00
2023-11-27T04:45:43.984Z,3.30
2023-11-27T04:48:10.427Z,2.85
2023-11-27T04:50:37.361Z,2.90
2023-11-27T04:53:03.928Z,3.20
2023-11-27T04:55:32.812Z,2.97
2023-11-27T04:57:59.427Z,2.55
2023-11-27T05:00:26.276Z,3.08
2023-11-27T05:02:55.241Z,2.08
2023-11-27T05:05:21.854Z,3.05
2023-11-27T05:07:48.667Z,2.55
2023-11-27T05:10:15.207Z,3.17
2023-11-27T05:12:42.812Z,2.85
2023-11-27T05:15:09.603Z,2.58
2023-11-27T05:17:36.564Z,2.60
2023-11-27T05:20:03.822Z,2.80
2023-11-27T05:22:30.336Z,2.80
2023-11-27T05:24:57.455Z,3.28
2023-11-27T05:27:24.629Z,2.60
2023-11-27T05:29:53.491Z,3.45
2023-11-27T05:32:20.405Z,2.97
2023-11-27T05:34:49.335Z,2.30
2023-11-27T05:37:18.447Z,2.40
2023-11-27T05:39:45.268Z,2.72
2023-11-27T05:42:12.117Z,1.98
2023-11-27T05:47:21.344Z,2.00
2023-11-27T05:49:48.157Z,2.20
2023-11-27T05:54:55.398Z,2.30
2023-11-27T05:57:22.335Z,2.45
2023-11-27T05:59:51.003Z,2.63
2023-11-27T06:02:18.191Z,2.70
2023-11-27T06:04:45.234Z,2.60
2023-11-27T06:07:11.767Z,2.70
2023-11-27T06:09:39.068Z,2.40
2023-11-27T06:12:09.293Z,2.92
2023-11-27T06:14:35.899Z,2.25
2023-11-27T06:17:03.111Z,3.05
2023-11-27T06:19:29.876Z,2.25
2023-11-27T06:21:56.570Z,2.90
2023-11-27T06:24:23.270Z,2.58
2023-11-27T06:26:49.782Z,3.63
2023-11-27T06:29:17.031Z,4.32
2023-11-27T06:31:46.320Z,3.30
2023-11-27T06:34:13.160Z,3.88
2023-11-27T06:36:39.814Z,3.42
2023-11-27T06:39:07.437Z,3.60
2023-11-27T06:41:35.087Z,3.45
2023-11-27T06:44:09.734Z,3.80
2023-11-27T06:46:36.365Z,2.63
2023-11-27T06:49:04.698Z,4.50
2023-11-27T06:51:31.350Z,3.90
2023-11-27T06:53:57.893Z,2.97
2023-11-27T06:56:24.976Z,2.83
2023-11-27T06:58:52.436Z,4.45
2023-11-27T07:01:19.346Z,2.60
2023-11-27T07:03:50.926Z,2.20
2023-11-27T07:06:17.536Z,2.83
2023-11-27T07:08:43.957Z,2.63
2023-11-27T07:11:10.886Z,2.50
2023-11-27T07:13:37.322Z,2.85
2023-11-27T07:16:04.440Z,2.67
2023-11-27T07:18:34.287Z,2.47
2023-11-27T07:21:01.448Z,2.05
2023-11-27T07:23:28.353Z,2.20
2023-11-27T07:25:54.805Z,2.13
2023-11-27T07:28:21.351Z,2.15
2023-11-27T07:30:48.784Z,2.72
2023-11-27T07:33:15.292Z,2.58
2023-11-27T07:35:42.024Z,3.13
2023-11-27T07:38:09.098Z,2.00
2023-11-27T07:40:35.834Z,2.10
2023-11-27T07:43:02.849Z,2.13
2023-11-27T07:45:32.455Z,2.20
2023-11-27T07:47:59.080Z,2.30
2023-11-27T07:50:25.543Z,2.00
2023-11-27T07:52:52.059Z,2.10
2023-11-27T07:55:18.640Z,2.33
2023-11-27T07:57:45.144Z,2.17
2023-11-27T08:00:11.609Z,2.08
2023-11-27T08:02:39.085Z,1.88
2023-11-27T08:05:05.782Z,3.08
2023-11-27T08:07:32.298Z,1.77
2023-11-27T08:09:58.977Z,1.70
2023-11-27T08:12:25.447Z,2.35
2023-11-27T08:14:54.988Z,1.52
2023-11-27T08:17:23.962Z,1.40
2023-11-27T08:19:50.733Z,1.83
2023-11-27T08:22:18.320Z,2.25
2023-11-27T08:24:44.960Z,1.38
2023-11-27T08:27:15.301Z,1.25
2023-11-27T08:29:43.455Z,1.20
2023-11-27T08:32:10.310Z,1.48
2023-11-27T08:34:36.720Z,1.40
2023-11-27T08:37:03.261Z,1.10
2023-11-27T08:39:31.547Z,1.52
2023-11-27T08:41:58.182Z,1.45
2023-11-27T08:44:25.431Z,1.67
2023-11-27T08:46:53.112Z,1.85
2023-11-27T08:49:19.868Z,1.50
2023-11-27T08:51:48.414Z,1.85
2023-11-27T08:54:16.022Z,1.35
2023-11-27T08:56:42.698Z,1.38
2023-11-27T08:59:09.243Z,1.17
2023-11-27T09:01:37.390Z,1.38
2023-11-27T09:04:04.134Z,1.40
2023-11-27T09:06:30.681Z,1.60
2023-11-27T09:08:57.474Z,3.67
2023-11-27T09:11:26.688Z,1.60
2023-11-27T09:13:55.680Z,2.17
2023-11-27T09:16:24.599Z,1.70
2023-11-27T09:18:51.209Z,2.45
2023-11-27T09:21:18.535Z,1.42
2023-11-27T09:23:45.413Z,1.52
2023-11-27T09:26:12.309Z,1.70
2023-11-27T09:28:40.467Z,1.30
2023-11-27T09:31:07.908Z,1.50
2023-11-27T09:33:34.433Z,1.63
2023-11-27T09:36:00.934Z,1.55
2023-11-27T09:38:27.721Z,1.15
2023-11-27T09:40:54.497Z,2.50
2023-11-27T09:43:21.545Z,1.92
2023-11-27T09:45:48.165Z,1.58
2023-11-27T09:48:14.801Z,1.63
2023-11-27T09:50:41.433Z,1.38
2023-11-27T09:53:07.916Z,1.95
2023-11-27T09:55:35.045Z,1.15
2023-11-27T09:58:02.413Z,1.55
2023-11-27T10:00:29.053Z,1.50
2023-11-27T10:02:56.459Z,2.13
2023-11-27T10:05:23.550Z,1.65
2023-11-27T10:07:50.808Z,1.52
2023-11-27T10:10:20.068Z,1.40
2023-11-27T10:12:47.355Z,3.10
2023-11-27T10:15:14.006Z,1.80
2023-11-27T10:17:40.925Z,1.58
2023-11-27T10:20:07.952Z,1.52
2023-11-27T10:22:34.629Z,1.27
2023-11-27T10:25:03.140Z,1.15
2023-11-27T10:27:30.003Z,1.38
2023-11-27T10:29:56.801Z,1.50
2023-11-27T10:32:23.718Z,1.25
2023-11-27T10:34:50.210Z,1.10
2023-11-27T10:37:18.450Z,1.00
2023-11-27T10:39:44.912Z,3.03
2023-11-27T10:42:11.721Z,1.23
2023-11-27T10:44:38.310Z,1.20
2023-11-27T10:47:05.026Z,1.38
2023-11-27T10:49:32.246Z,1.15
2023-11-27T10:51:59.648Z,1.60
2023-11-27T10:54:26.141Z,1.75
2023-11-27T10:56:52.895Z,1.20
2023-11-27T10:59:19.354Z,0.93
2023-11-27T11:01:45.946Z,1.58
2023-11-27T11:04:12.867Z,1.35
2023-11-27T11:06:39.445Z,1.90
2023-11-27T11:09:06.401Z,1.55
2023-11-27T11:11:34.193Z,1.30
2023-11-27T11:14:00.627Z,2.33
2023-11-27T11:16:27.328Z,1.50
2023-11-27T11:18:54.464Z,1.75
2023-11-27T11:21:26.919Z,2.08
2023-11-27T11:23:57.284Z,1.45
2023-11-27T11:26:34.130Z,1.42
2023-11-27T11:29:08.641Z,1.60
2023-11-27T11:31:40.112Z,2.15
2023-11-27T11:34:06.887Z,1.23
2023-11-27T11:36:35.889Z,2.83
2023-11-27T11:39:03.939Z,2.78
2023-11-27T11:44:11.076Z,2.47
2023-11-27T11:46:41.967Z,2.10
2023-11-27T11:49:10.454Z,2.85
2023-11-27T11:54:26.395Z,2.97
2023-11-27T11:56:57.581Z,2.42
2023-11-27T11:59:24.173Z,1.85
2023-11-27T12:01:52.557Z,2.03
2023-11-27T12:04:19.224Z,1.95
2023-11-27T12:06:46.392Z,2.40
2023-11-27T12:09:14.922Z,2.00
2023-11-27T12:11:41.591Z,1.95
2023-11-27T12:14:08.456Z,3.05
2023-11-27T12:19:18.326Z,2.35
2023-11-27T12:21:55.711Z,2.83
2023-11-27T12:24:22.892Z,1.50
2023-11-27T12:26:49.810Z,3.17
2023-11-27T12:29:18.555Z,2.08
2023-11-27T12:31:45.139Z,1.52
2023-11-27T12:34:12.684Z,2.47
2023-11-27T12:36:39.249Z,1.50
2023-11-27T12:39:05.738Z,1.52
2023-11-27T12:41:34.875Z,0.80
2023-11-27T12:44:02.816Z,0.93
2023-11-27T12:46:29.475Z,1.85
2023-11-27T12:48:56.502Z,1.20
2023-11-27T12:51:23.144Z,1.17
2023-11-27T12:53:50.953Z,1.15
2023-11-27T12:56:17.521Z,1.02
2023-11-27T12:58:44.324Z,1.45
2023-11-27T13:01:10.878Z,1.17
2023-11-27T13:03:37.426Z,1.95
2023-11-27T13:06:04.291Z,2.40
2023-11-27T13:08:31.728Z,0.90
2023-11-27T13:10:59.239Z,1.60
2023-11-27T13:13:26.228Z,1.20
2023-11-27T13:15:52.885Z,1.13
2023-11-27T13:18:19.611Z,1.45
2023-11-27T13:20:46.319Z,0.95
2023-11-27T13:23:14.063Z,2.83
2023-11-27T13:25:40.546Z,2.05
2023-11-27T13:28:10.342Z,1.40
2023-11-27T13:30:36.843Z,1.10
2023-11-27T13:33:03.961Z,1.38
2023-11-27T13:35:30.798Z,1.70
2023-11-27T13:37:57.378Z,1.40
2023-11-27T13:40:24.084Z,1.27
2023-11-27T13:42:51.036Z,1.48
2023-11-27T13:45:17.603Z,2.17
2023-11-27T13:47:44.144Z,4.72
2023-11-27T13:50:11.934Z,2.45
2023-11-27T13:52:38.406Z,2.35
2023-11-27T13:55:04.957Z,2.05
2023-11-27T13:57:34.323Z,1.58
2023-11-27T14:00:01.975Z,1.67
2023-11-27T14:02:31.193Z,6.82
2023-11-27T14:04:58.336Z,4.07
2023-11-27T14:07:26.187Z,5.10
2023-11-27T14:09:53.129Z,3.97
2023-11-27T14:12:19.682Z,1.40
2023-11-27T14:14:46.232Z,1.95
2023-11-27T14:17:12.889Z,1.50
2023-11-27T14:19:39.411Z,4.60
2023-11-27T14:22:06.017Z,3.55
2023-11-27T14:24:32.468Z,2.58
2023-11-27T14:27:00.327Z,4.63
2023-11-27T14:29:34.190Z,5.72
2023-11-27T14:34:42.686Z,3.78
2023-11-27T14:37:09.233Z,4.20
2023-11-27T14:39:35.933Z,3.03
2023-11-27T14:42:03.183Z,4.43
2023-11-27T14:44:31.022Z,3.38
2023-11-27T14:46:58.471Z,4.53
2023-11-27T14:49:25.273Z,2.75
2023-11-27T14:51:52.724Z,3.70
2023-11-27T14:54:21.541Z,2.92
2023-11-27T14:56:48.814Z,2.45
2023-11-27T14:59:15.293Z,1.85
2023-11-27T15:01:42.805Z,1.30
2023-11-27T15:04:10.426Z,2.35
2023-11-27T15:06:38.175Z,2.70
2023-11-27T15:09:04.670Z,2.47
2023-11-27T15:11:33.581Z,2.42
2023-11-27T15:14:00.901Z,2.47
2023-11-27T15:16:27.740Z,3.00
2023-11-27T15:18:55.648Z,3.45
2023-11-27T15:21:22.271Z,5.63
2023-11-27T15:23:51.230Z,3.92
2023-11-27T15:26:20.359Z,12.13
2023-11-27T15:28:47.497Z,6.30
2023-11-27T15:31:14.508Z,4.30
2023-11-27T15:33:41.246Z,6.68
2023-11-27T15:38:48.959Z,10.82
2023-11-27T15:46:37.223Z,8.93
2023-11-27T15:49:05.308Z,8.90
2023-11-27T15:51:32.982Z,5.80
2023-11-27T15:54:00.231Z,8.40
2023-11-27T15:56:26.655Z,8.63
2023-11-27T15:58:53.640Z,7.78
2023-11-27T16:01:20.431Z,7.00
2023-11-27T16:03:48.671Z,3.88
2023-11-27T16:06:15.514Z,6.10
2023-11-27T16:08:42.912Z,6.28
2023-11-27T16:11:10.852Z,5.13
2023-11-27T16:13:37.521Z,6.00
2023-11-27T16:16:03.975Z,5.53
2023-11-27T16:21:12.381Z,8.27
2023-11-27T16:23:43.251Z,4.95
2023-11-27T16:26:12.962Z,4.90
2023-11-27T16:28:40.733Z,6.05
2023-11-27T16:31:12.904Z,4.97
2023-11-27T16:33:39.533Z,5.65
2023-11-27T16:38:46.590Z,3.45
2023-11-27T16:41:13.949Z,3.42
2023-11-27T16:43:42.776Z,5.13
2023-11-27T16:46:09.332Z,3.67
2023-11-27T16:48:36.196Z,2.90
2023-11-27T16:51:04.964Z,3.97
2023-11-27T16:53:31.875Z,5.57
2023-11-27T16:56:01.060Z,3.72
2023-11-27T16:58:28.672Z,4.40
2023-11-27T17:00:55.463Z,3.83
2023-11-27T17:03:22.399Z,3.90
2023-11-27T17:05:50.646Z,7.63
2023-11-27T17:08:19.686Z,5.32
2023-11-27T17:10:48.650Z,4.85
2023-11-27T17:13:15.432Z,5.18
2023-11-27T17:15:42.741Z,6.15
2023-11-27T17:18:09.875Z,6.75
2023-11-27T17:20:40.917Z,6.07
2023-11-27T17:23:08.454Z,7.45
2023-11-27T17:25:35.263Z,7.85
2023-11-27T17:28:04.531Z,7.00
2023-11-27T17:30:31.272Z,6.07
2023-11-27T17:33:01.430Z,6.97
2023-11-27T17:35:29.267Z,12.13
2023-11-27T17:37:55.821Z,8.80
2023-11-27T17:40:27.002Z,8.07
2023-11-27T17:42:54.563Z,7.35
2023-11-27T17:45:22.778Z,8.65
2023-11-27T17:47:49.663Z,6.60
2023-11-27T17:50:22.096Z,7.25
2023-11-27T17:52:49.818Z,6.00
2023-11-27T17:55:17.314Z,8.30
2023-11-27T17:57:43.960Z,10.15
2023-11-27T18:02:52.343Z,7.80
2023-11-27T18:05:21.532Z,8.68
2023-11-27T18:07:48.938Z,8.27
2023-11-27T18:10:16.070Z,8.45
2023-11-27T22:42:57.882Z,16.42
2023-11-27T22:45:25.405Z,18.48
2023-11-27T22:47:54.057Z,16.10
2023-11-27T22:50:21.823Z,19.17
2023-11-27T22:55:36.298Z,17.95
2023-11-27T22:58:05.616Z,14.40
2023-11-27T23:05:58.835Z,16.83
2023-11-27T23:24:30.871Z,18.38
2023-11-27T23:26:57.626Z,18.27
2023-11-27T23:29:28.542Z,18.60
2023-11-27T23:31:58.311Z,19.67
2023-11-27T23:34:26.759Z,18.10
2023-11-27T23:36:53.869Z,16.27
2023-11-27T23:39:20.576Z,17.23
2023-11-27T23:41:47.562Z,17.75
2023-11-27T23:44:15.154Z,17.88
2023-11-27T23:46:42.246Z,18.45
2023-11-27T23:49:10.664Z,21.40
2023-11-27T23:51:37.448Z,15.18
2023-11-27T23:54:04.229Z,18.13
2023-11-27T23:56:31.089Z,16.67
2023-11-27T23:58:59.917Z,13.48
